createdAt,value
2022-12-11T00:00:25.895Z,83.00
2022-12-11T00:02:52.604Z,82.80
2022-12-11T00:05:19.333Z,82.80
2022-12-11T00:07:46.131Z,82.80
2022-12-11T00:10:12.871Z,82.80
2022-12-11T00:12:39.550Z,82.90
2022-12-11T00:15:06.762Z,82.80
2022-12-11T00:17:33.489Z,82.70
2022-12-11T00:20:00.191Z,82.80
2022-12-11T00:22:27.119Z,82.80
2022-12-11T00:24:53.808Z,82.80
2022-12-11T00:27:20.482Z,82.90
2022-12-11T00:29:47.182Z,82.90
2022-12-11T00:32:13.917Z,82.80
2022-12-11T00:34:40.646Z,82.80
2022-12-11T00:37:07.391Z,82.70
2022-12-11T00:39:34.147Z,82.70
2022-12-11T00:42:00.815Z,82.70
2022-12-11T00:44:27.490Z,82.70
2022-12-11T00:46:54.157Z,82.70
2022-12-11T00:49:20.848Z,82.80
2022-12-11T00:51:47.532Z,82.80
2022-12-11T00:54:14.227Z,82.80
2022-12-11T00:56:40.904Z,82.70
2022-12-11T00:59:07.643Z,82.70
2022-12-11T01:01:34.360Z,82.80
2022-12-11T01:04:01.114Z,82.90
2022-12-11T01:06:28.033Z,82.90
2022-12-11T01:08:55.096Z,82.90
2022-12-11T01:11:21.850Z,82.80
2022-12-11T01:13:48.545Z,82.80
2022-12-11T01:16:15.732Z,82.80
2022-12-11T01:18:42.606Z,82.80
2022-12-11T01:21:10.781Z,82.70
2022-12-11T01:23:37.469Z,82.70
2022-12-11T01:26:08.437Z,82.50
2022-12-11T01:28:35.242Z,82.50
2022-12-11T01:31:01.997Z,82.40
2022-12-11T01:33:28.786Z,82.50
2022-12-11T01:35:55.493Z,82.40
2022-12-11T01:38:22.193Z,82.30
2022-12-11T01:40:49.598Z,82.40
2022-12-11T01:43:16.329Z,82.30
2022-12-11T01:45:44.324Z,82.30
2022-12-11T01:48:16.251Z,82.40
2022-12-11T01:51:06.356Z,82.40
2022-12-11T01:53:39.086Z,82.50
2022-12-11T01:56:06.394Z,82.50
2022-12-11T01:58:35.385Z,82.50
2022-12-11T02:01:02.137Z,82.40
2022-12-11T02:03:28.897Z,82.30
2022-12-11T02:06:01.843Z,82.60
2022-12-11T02:08:28.638Z,82.30
2022-12-11T02:11:12.960Z,82.30
2022-12-11T02:14:08.895Z,82.40
2022-12-11T02:16:52.289Z,82.30
2022-12-11T02:19:45.174Z,82.30
2022-12-11T02:22:14.462Z,82.30
2022-12-11T02:25:16.956Z,82.30
2022-12-11T02:27:49.063Z,82.30
2022-12-11T02:30:15.984Z,82.20
2022-12-11T02:32:46.648Z,82.10
2022-12-11T02:35:22.738Z,82.20
2022-12-11T02:37:52.026Z,82.40
2022-12-11T02:40:21.755Z,82.50
2022-12-11T02:42:48.489Z,82.50
2022-12-11T02:45:15.243Z,82.40
2022-12-11T02:47:41.966Z,82.30
2022-12-11T02:50:10.498Z,82.30
2022-12-11T02:52:37.217Z,83.00
2022-12-11T02:55:04.150Z,82.20
2022-12-11T02:57:38.652Z,82.30
2022-12-11T03:00:06.192Z,82.30
2022-12-11T03:02:32.942Z,82.30
2022-12-11T03:04:59.783Z,82.30
2022-12-11T03:07:28.884Z,82.20
2022-12-11T03:09:55.588Z,82.30
2022-12-11T03:12:28.527Z,82.40
2022-12-11T03:14:55.136Z,82.40
2022-12-11T03:17:27.365Z,82.30
2022-12-11T03:20:12.908Z,82.30
2022-12-11T03:22:46.230Z,82.30
2022-12-11T03:25:19.969Z,82.40
2022-12-11T03:28:09.269Z,82.60
2022-12-11T03:30:36.293Z,82.50
2022-12-11T03:33:09.190Z,82.30
2022-12-11T03:35:37.103Z,82.20
2022-12-11T03:38:06.653Z,82.20
2022-12-11T03:40:33.584Z,82.00
2022-12-11T03:43:00.326Z,82.10
2022-12-11T03:45:27.205Z,82.10
2022-12-11T03:47:54.030Z,82.50
2022-12-11T03:50:20.791Z,82.40
2022-12-11T03:52:48.084Z,82.40
2022-12-11T03:55:16.252Z,82.30
2022-12-11T03:57:43.017Z,82.30
2022-12-11T04:00:14.854Z,82.30
2022-12-11T04:02:41.823Z,82.30
2022-12-11T04:05:09.262Z,82.10
2022-12-11T04:07:36.386Z,82.00
2022-12-11T04:10:04.011Z,81.90
2022-12-11T04:12:30.713Z,81.90
2022-12-11T04:14:57.384Z,81.90
2022-12-11T04:17:24.088Z,81.90
2022-12-11T04:19:50.778Z,82.10
2022-12-11T04:22:18.176Z,82.30
2022-12-11T04:24:44.864Z,82.30
2022-12-11T04:27:11.530Z,82.30
2022-12-11T04:29:38.255Z,82.30
2022-12-11T04:32:05.061Z,82.10
2022-12-11T04:34:31.762Z,82.00
2022-12-11T04:36:58.462Z,82.10
2022-12-11T04:39:25.166Z,82.20
2022-12-11T04:41:51.859Z,82.10
2022-12-11T04:44:18.533Z,82.10
2022-12-11T04:46:45.341Z,81.90
2022-12-11T04:49:12.113Z,81.90
2022-12-11T04:51:38.799Z,81.90
2022-12-11T04:54:05.533Z,81.90
2022-12-11T04:56:32.263Z,81.80
2022-12-11T04:58:58.932Z,81.80
2022-12-11T05:01:25.639Z,81.80
2022-12-11T05:03:52.384Z,81.80
2022-12-11T05:06:19.057Z,81.80
2022-12-11T05:08:45.854Z,81.80
2022-12-11T05:11:14.179Z,81.60
2022-12-11T05:13:41.183Z,81.70
2022-12-11T05:16:08.842Z,81.90
2022-12-11T05:18:35.645Z,82.10
2022-12-11T05:21:06.052Z,82.20
2022-12-11T05:23:32.794Z,82.20
2022-12-11T05:26:01.036Z,82.10
2022-12-11T05:28:28.774Z,82.00
2022-12-11T05:30:59.621Z,82.00
2022-12-11T05:33:26.432Z,81.90
2022-12-11T05:35:53.155Z,81.90
2022-12-11T05:38:20.075Z,81.80
2022-12-11T05:40:56.154Z,81.80
2022-12-11T05:43:22.883Z,81.80
2022-12-11T05:45:49.559Z,81.80
2022-12-11T05:48:16.336Z,81.70
2022-12-11T05:50:43.033Z,81.70
2022-12-11T05:53:09.758Z,81.80
2022-12-11T05:55:36.553Z,81.70
2022-12-11T05:58:03.243Z,81.70
2022-12-11T06:00:34.460Z,81.70
2022-12-11T06:03:02.805Z,81.60
2022-12-11T06:05:29.605Z,81.60
2022-12-11T06:07:56.385Z,81.60
2022-12-11T06:10:23.083Z,81.60
2022-12-11T06:12:49.815Z,81.80
2022-12-11T06:15:16.553Z,81.70
2022-12-11T06:17:43.257Z,81.60
2022-12-11T06:20:10.228Z,81.50
2022-12-11T06:22:36.941Z,81.60
2022-12-11T06:25:03.938Z,81.60
2022-12-11T06:27:30.623Z,81.60
2022-12-11T06:29:57.331Z,81.60
2022-12-11T06:32:24.048Z,82.30
2022-12-11T06:34:50.777Z,81.50
2022-12-11T06:37:17.464Z,81.50
2022-12-11T06:39:44.201Z,81.50
2022-12-11T06:42:10.884Z,82.40
2022-12-11T06:44:37.531Z,81.60
2022-12-11T06:47:04.298Z,81.60
2022-12-11T06:49:31.070Z,81.60
2022-12-11T06:51:57.777Z,81.60
2022-12-11T06:54:27.783Z,81.40
2022-12-11T06:56:54.497Z,81.30
2022-12-11T06:59:21.174Z,81.30
2022-12-11T07:01:47.971Z,81.40
2022-12-11T07:04:14.706Z,81.40
2022-12-11T07:06:41.397Z,81.40
2022-12-11T07:09:08.061Z,81.40
2022-12-11T07:11:34.778Z,81.40
2022-12-11T07:14:01.606Z,81.40
2022-12-11T07:16:28.350Z,81.40
2022-12-11T07:18:55.000Z,81.50
2022-12-11T07:21:21.684Z,81.50
2022-12-11T07:23:48.918Z,81.50
2022-12-11T07:26:17.452Z,81.40
2022-12-11T07:28:44.305Z,81.20
2022-12-11T07:31:16.339Z,81.30
2022-12-11T07:33:43.150Z,81.30
2022-12-11T07:36:11.348Z,81.40
2022-12-11T07:38:38.047Z,81.40
2022-12-11T07:41:06.101Z,81.40
2022-12-11T07:43:33.583Z,81.60
2022-12-11T07:46:04.939Z,81.60
2022-12-11T07:48:31.785Z,81.60
2022-12-11T07:51:17.364Z,81.60
2022-12-11T07:53:45.036Z,81.60
2022-12-11T07:56:11.852Z,81.60
2022-12-11T07:58:38.555Z,81.60
2022-12-11T08:01:06.444Z,81.60
2022-12-11T08:03:33.163Z,81.60
2022-12-11T08:05:59.891Z,81.70
2022-12-11T08:08:26.632Z,81.80
2022-12-11T08:10:53.392Z,81.80
2022-12-11T08:13:20.098Z,81.80
2022-12-11T08:15:46.776Z,81.90
2022-12-11T08:18:13.475Z,81.90
2022-12-11T08:20:40.171Z,81.80
2022-12-11T08:23:06.878Z,81.90
2022-12-11T08:25:33.554Z,81.70
2022-12-11T08:28:00.257Z,81.60
2022-12-11T08:30:27.074Z,81.50
2022-12-11T08:32:53.847Z,81.70
2022-12-11T08:35:20.560Z,81.70
2022-12-11T08:37:47.224Z,81.70
2022-12-11T08:40:13.922Z,81.70
2022-12-11T08:42:40.586Z,81.80
2022-12-11T08:45:07.974Z,81.70
2022-12-11T08:47:34.834Z,81.70
2022-12-11T08:50:01.618Z,81.60
2022-12-11T08:52:28.351Z,81.50
2022-12-11T08:54:55.236Z,82.30
2022-12-11T08:57:22.017Z,81.60
2022-12-11T08:59:48.684Z,81.70
2022-12-11T09:02:15.432Z,81.50
2022-12-11T09:04:42.086Z,81.60
2022-12-11T09:07:08.820Z,81.70
2022-12-11T09:09:35.508Z,81.70
2022-12-11T09:12:02.251Z,81.80
2022-12-11T09:14:28.919Z,82.00
2022-12-11T09:16:55.683Z,82.00
2022-12-11T09:19:22.401Z,82.10
2022-12-11T09:21:49.093Z,82.10
2022-12-11T09:24:15.763Z,81.90
2022-12-11T09:26:42.495Z,81.70
2022-12-11T09:29:10.115Z,81.70
2022-12-11T09:31:37.039Z,81.80
2022-12-11T09:34:07.952Z,81.60
2022-12-11T09:36:34.983Z,81.50
2022-12-11T09:39:02.862Z,81.40
2022-12-11T09:42:00.371Z,81.40
2022-12-11T09:44:43.516Z,81.40
2022-12-11T09:47:16.355Z,81.50
2022-12-11T09:49:43.661Z,81.60
2022-12-11T09:52:12.156Z,81.70
2022-12-11T09:54:43.767Z,81.60
2022-12-11T09:57:52.061Z,81.70
2022-12-11T10:00:47.106Z,81.50
2022-12-11T10:03:32.149Z,81.40
2022-12-11T10:06:42.163Z,81.20
2022-12-11T10:10:10.356Z,81.20
2022-12-11T10:12:51.839Z,81.30
2022-12-11T10:15:41.936Z,81.30
2022-12-11T10:18:13.590Z,81.40
2022-12-11T10:20:40.285Z,81.50
2022-12-11T10:23:08.212Z,81.40
2022-12-11T10:25:42.578Z,81.30
2022-12-11T10:28:14.342Z,81.30
2022-12-11T10:31:10.776Z,81.30
2022-12-11T10:33:41.862Z,81.30
2022-12-11T10:36:08.701Z,81.30
2022-12-11T10:38:40.819Z,81.30
2022-12-11T10:41:12.771Z,81.40
2022-12-11T10:43:44.364Z,81.40
2022-12-11T10:46:24.844Z,81.40
2022-12-11T10:48:53.764Z,81.30
2022-12-11T10:51:22.256Z,81.40
2022-12-11T10:53:58.715Z,81.30
2022-12-11T10:56:28.373Z,81.40
2022-12-11T10:58:55.202Z,81.50
2022-12-11T11:01:23.362Z,81.50
2022-12-11T11:04:06.588Z,81.80
2022-12-11T11:06:33.232Z,81.80
2022-12-11T11:09:00.825Z,81.60
2022-12-11T11:11:37.594Z,81.80
2022-12-11T11:14:16.870Z,81.90
2022-12-11T11:16:45.571Z,81.90
2022-12-11T11:19:32.676Z,81.80
2022-12-11T11:22:13.933Z,81.90
2022-12-11T11:25:00.974Z,81.80
2022-12-11T11:27:36.904Z,81.60
2022-12-11T11:30:17.067Z,81.60
2022-12-11T11:32:43.826Z,81.80
2022-12-11T11:35:13.732Z,81.60
2022-12-11T11:37:41.851Z,81.70
2022-12-11T11:40:12.448Z,81.60
2022-12-11T11:42:39.115Z,81.60
2022-12-11T11:45:09.825Z,81.80
2022-12-11T11:47:39.987Z,81.80
2022-12-11T11:50:12.900Z,81.90
2022-12-11T11:52:48.802Z,81.90
2022-12-11T11:55:22.152Z,81.90
2022-12-11T11:58:04.928Z,82.00
2022-12-11T12:00:33.849Z,81.90
2022-12-11T12:03:02.479Z,81.90
2022-12-11T12:05:54.122Z,81.90
2022-12-11T12:08:46.242Z,82.00
2022-12-11T12:11:23.593Z,81.90
2022-12-11T12:14:22.721Z,81.80
2022-12-11T12:17:37.258Z,81.90
2022-12-11T12:20:28.366Z,81.80
2022-12-11T12:22:58.102Z,81.90
2022-12-11T12:25:25.041Z,82.00
2022-12-11T12:28:15.539Z,81.90
2022-12-11T12:31:24.334Z,82.00
2022-12-11T12:34:02.765Z,81.90
2022-12-11T12:36:55.862Z,81.90
2022-12-11T12:39:25.413Z,81.90
2022-12-11T12:42:07.043Z,81.90
2022-12-11T12:45:04.115Z,81.90
2022-12-11T12:47:32.425Z,81.90
2022-12-11T12:49:59.262Z,82.00
2022-12-11T12:52:46.188Z,82.10
2022-12-11T12:55:13.194Z,82.00
2022-12-11T12:57:57.162Z,82.00
2022-12-11T13:00:27.827Z,82.00
2022-12-11T13:02:54.511Z,82.10
2022-12-11T13:05:26.443Z,82.00
2022-12-11T13:07:58.222Z,82.10
2022-12-11T13:10:30.001Z,82.20
2022-12-11T13:12:56.931Z,82.20
2022-12-11T13:15:34.825Z,82.20
2022-12-11T13:18:03.421Z,82.10
2022-12-11T13:20:32.048Z,82.20
2022-12-11T13:23:07.621Z,82.30
2022-12-11T13:25:49.917Z,82.40
2022-12-11T13:28:39.688Z,82.30
2022-12-11T13:31:15.844Z,82.30
2022-12-11T13:33:53.258Z,82.30
2022-12-11T13:36:24.294Z,82.40
2022-12-11T13:39:36.845Z,82.40
2022-12-11T13:42:09.965Z,82.30
2022-12-11T13:44:40.581Z,82.30
2022-12-11T13:47:11.163Z,82.30
2022-12-11T13:49:39.841Z,82.30
2022-12-11T13:52:06.659Z,82.30
2022-12-11T13:54:35.238Z,82.40
2022-12-11T13:57:04.554Z,82.50
2022-12-11T13:59:36.200Z,82.60
2022-12-11T14:02:06.047Z,82.60
2022-12-11T14:04:33.145Z,82.60
2022-12-11T14:06:59.826Z,82.60
2022-12-11T14:09:26.863Z,82.60
2022-12-11T14:11:56.736Z,82.60
2022-12-11T14:14:25.134Z,82.70
2022-12-11T14:16:52.078Z,82.70
2022-12-11T14:19:20.179Z,82.70
2022-12-11T14:22:01.292Z,82.80
2022-12-11T14:24:29.025Z,82.80
2022-12-11T14:26:56.040Z,82.80
2022-12-11T14:29:29.680Z,82.80
2022-12-11T14:31:57.209Z,82.90
2022-12-11T14:34:32.531Z,82.90
2022-12-11T14:36:59.324Z,82.90
2022-12-11T14:39:41.254Z,82.90
2022-12-11T14:42:11.809Z,83.00
2022-12-11T14:44:47.535Z,82.80
2022-12-11T14:47:25.632Z,82.90
2022-12-11T14:50:15.434Z,83.00
2022-12-11T14:52:48.192Z,82.90
2022-12-11T14:55:14.955Z,82.90
2022-12-11T14:57:43.459Z,83.00
2022-12-11T15:00:21.935Z,83.00
2022-12-11T15:02:58.058Z,82.90
2022-12-11T15:05:24.812Z,83.00
2022-12-11T15:08:02.570Z,82.90
2022-12-11T15:10:36.896Z,83.10
2022-12-11T15:13:06.942Z,83.10
2022-12-11T15:15:45.527Z,83.10
2022-12-11T15:18:28.370Z,83.10
2022-12-11T15:20:57.737Z,83.10
2022-12-11T15:23:24.500Z,83.00
2022-12-11T15:25:52.775Z,82.90
2022-12-11T15:28:35.689Z,83.00
2022-12-11T15:31:07.547Z,83.00
2022-12-11T15:33:44.364Z,82.90
2022-12-11T15:36:30.241Z,83.10
2022-12-11T15:38:57.092Z,83.20
2022-12-11T15:41:24.796Z,83.30
2022-12-11T15:43:58.107Z,83.30
2022-12-11T15:46:25.498Z,83.30
2022-12-11T15:48:52.318Z,83.30
2022-12-11T15:51:19.081Z,83.40
2022-12-11T15:53:45.836Z,83.40
2022-12-11T15:56:16.083Z,83.40
2022-12-11T15:58:44.373Z,83.60
2022-12-11T16:01:11.159Z,83.50
2022-12-11T16:03:37.976Z,83.40
2022-12-11T16:06:04.762Z,83.50
2022-12-11T16:08:31.866Z,83.40
2022-12-11T16:10:58.545Z,83.50
2022-12-11T16:13:25.195Z,83.50
2022-12-11T16:15:52.099Z,83.60
2022-12-11T16:18:20.945Z,83.60
2022-12-11T16:20:47.776Z,83.80
2022-12-11T16:23:14.629Z,83.70
2022-12-11T16:25:42.355Z,83.80
2022-12-11T16:28:09.308Z,83.80
2022-12-11T16:30:36.626Z,83.80
2022-12-11T16:33:10.292Z,83.80
2022-12-11T16:35:39.121Z,83.80
2022-12-11T16:38:05.852Z,83.80
2022-12-11T16:40:32.640Z,83.90
2022-12-11T16:42:59.331Z,83.90
2022-12-11T16:45:26.260Z,83.90
2022-12-11T16:47:53.095Z,83.90
2022-12-11T16:50:19.892Z,83.90
2022-12-11T16:52:46.555Z,83.90
2022-12-11T16:55:13.774Z,84.00
2022-12-11T16:57:41.112Z,84.00
2022-12-11T17:00:08.811Z,83.90
2022-12-11T17:02:36.086Z,84.00
2022-12-11T17:05:02.913Z,84.10
2022-12-11T17:07:30.907Z,84.10
2022-12-11T17:09:57.681Z,84.10
2022-12-11T17:12:24.380Z,84.10
2022-12-11T17:14:51.077Z,84.10
2022-12-11T17:17:17.783Z,84.10
2022-12-11T17:19:44.682Z,84.10
2022-12-11T17:22:11.391Z,84.20
2022-12-11T17:24:38.510Z,84.20
2022-12-11T17:27:05.201Z,84.20
2022-12-11T17:29:32.017Z,84.30
2022-12-11T17:31:58.705Z,84.20
2022-12-11T17:34:25.402Z,84.20
2022-12-11T17:36:52.071Z,84.30
2022-12-11T17:39:18.755Z,84.40
2022-12-11T17:41:45.424Z,84.40
2022-12-11T17:44:12.115Z,84.40
2022-12-11T17:46:38.843Z,84.40
2022-12-11T17:49:05.728Z,84.40
2022-12-11T17:51:32.426Z,84.40
2022-12-11T17:53:59.181Z,84.40
2022-12-11T17:56:26.003Z,84.40
2022-12-11T17:58:52.677Z,84.40
2022-12-11T18:01:19.572Z,84.50
2022-12-11T18:03:46.455Z,84.40
2022-12-11T18:06:14.490Z,84.40
2022-12-11T18:08:41.384Z,84.60
2022-12-11T18:11:10.216Z,84.60
2022-12-11T18:13:36.882Z,84.50
2022-12-11T18:16:05.718Z,84.50
2022-12-11T18:18:32.457Z,84.60
2022-12-11T18:20:59.311Z,84.50
2022-12-11T18:23:26.049Z,84.60
2022-12-11T18:25:53.024Z,84.50
2022-12-11T18:28:19.753Z,84.60
2022-12-11T18:30:46.536Z,84.60
2022-12-11T18:33:13.234Z,84.60
2022-12-11T18:35:40.881Z,84.60
2022-12-11T18:38:07.718Z,84.60
2022-12-11T18:40:34.522Z,84.60
2022-12-11T18:43:01.217Z,84.60
2022-12-11T18:45:27.918Z,84.70
2022-12-11T18:47:54.591Z,85.40
2022-12-11T18:50:21.276Z,84.70
2022-12-11T18:52:47.964Z,84.60
2022-12-11T18:55:14.848Z,84.60
2022-12-11T18:57:41.776Z,84.70
2022-12-11T19:00:09.062Z,84.70
2022-12-11T19:02:35.818Z,84.70
2022-12-11T19:05:02.508Z,84.70
2022-12-11T19:07:29.223Z,84.70
2022-12-11T19:09:55.920Z,84.70
2022-12-11T19:12:22.624Z,84.70
2022-12-11T19:14:49.338Z,84.70
2022-12-11T19:17:16.075Z,84.70
2022-12-11T19:19:42.746Z,84.70
2022-12-11T19:22:09.457Z,84.70
2022-12-11T19:24:36.209Z,84.70
2022-12-11T19:27:05.309Z,84.70
2022-12-11T19:29:35.359Z,84.80
2022-12-11T19:32:02.282Z,84.80
2022-12-11T19:34:30.050Z,84.80
2022-12-11T19:36:56.799Z,84.90
2022-12-11T19:39:23.517Z,84.90
2022-12-11T19:41:50.200Z,84.70
2022-12-11T19:44:16.888Z,84.90
2022-12-11T19:46:43.660Z,84.90
2022-12-11T19:49:10.876Z,84.90
2022-12-11T19:51:39.003Z,85.00
2022-12-11T19:54:07.100Z,85.00
2022-12-11T19:56:34.213Z,85.00
2022-12-11T19:59:05.467Z,85.00
2022-12-11T20:01:33.014Z,85.10
2022-12-11T20:04:01.320Z,85.10
2022-12-11T20:06:32.042Z,85.10
2022-12-11T20:08:59.052Z,85.10
2022-12-11T20:11:25.924Z,84.90
2022-12-11T20:13:52.615Z,84.90
2022-12-11T20:16:28.880Z,85.10
2022-12-11T20:19:06.186Z,85.10
2022-12-11T20:21:32.848Z,85.20
2022-12-11T20:23:59.728Z,85.10
2022-12-11T20:26:26.401Z,85.10
2022-12-11T20:28:53.142Z,85.20
2022-12-11T20:31:23.707Z,85.20
2022-12-11T20:33:50.875Z,85.20
2022-12-11T20:36:18.251Z,85.20
2022-12-11T20:38:44.947Z,85.20
2022-12-11T20:41:12.905Z,85.10
2022-12-11T20:43:39.802Z,85.20
2022-12-11T20:46:10.371Z,85.20
2022-12-11T20:48:37.352Z,85.40
2022-12-11T20:51:05.422Z,85.40
2022-12-11T20:53:32.082Z,85.30
2022-12-11T20:55:58.780Z,85.20
2022-12-11T20:58:25.438Z,85.30
2022-12-11T21:00:52.675Z,85.40
2022-12-11T21:03:19.380Z,85.40
2022-12-11T21:05:46.263Z,85.30
2022-12-11T21:08:13.021Z,85.30
2022-12-11T21:10:43.946Z,85.30
2022-12-11T21:13:10.907Z,85.30
2022-12-11T21:15:38.345Z,85.30
2022-12-11T21:18:05.715Z,85.40
2022-12-11T21:20:32.679Z,85.40
2022-12-11T21:22:59.365Z,85.30
2022-12-11T21:25:26.103Z,85.50
2022-12-11T21:27:52.801Z,85.40
2022-12-11T21:30:19.587Z,85.40
2022-12-11T21:32:46.402Z,85.50
2022-12-11T21:35:13.572Z,85.20
2022-12-11T21:37:40.425Z,85.50
2022-12-11T21:40:07.591Z,85.50
2022-12-11T21:42:34.277Z,85.40
2022-12-11T21:47:47.755Z,85.60
2022-12-11T21:50:14.707Z,85.60
2022-12-11T21:52:41.503Z,85.60
2022-12-11T21:55:08.345Z,85.40
2022-12-11T21:57:35.036Z,85.40
2022-12-11T22:00:01.750Z,85.40
2022-12-11T22:02:28.474Z,85.40
2022-12-11T22:04:55.192Z,85.30
2022-12-11T22:07:21.871Z,85.40
2022-12-11T22:09:48.560Z,85.40
2022-12-11T22:12:21.756Z,85.40
2022-12-11T22:14:48.692Z,85.40
2022-12-11T22:17:15.413Z,85.40
2022-12-11T22:19:42.091Z,85.50
2022-12-11T22:22:08.780Z,85.50
2022-12-11T22:24:35.515Z,85.60
2022-12-11T22:27:02.290Z,85.60
2022-12-11T22:29:29.064Z,85.50
2022-12-11T22:31:55.794Z,85.50
2022-12-11T22:34:22.493Z,85.40
2022-12-11T22:36:49.160Z,85.30
2022-12-11T22:39:15.843Z,85.40
2022-12-11T22:41:42.613Z,85.30
2022-12-11T22:44:14.054Z,85.30
2022-12-11T22:46:43.122Z,85.30
2022-12-11T22:49:13.482Z,85.40
2022-12-11T22:51:40.182Z,85.20
2022-12-11T22:54:06.856Z,85.40
2022-12-11T22:56:33.519Z,85.40
2022-12-11T22:59:00.199Z,85.40
2022-12-11T23:01:27.256Z,85.40
2022-12-11T23:03:54.035Z,85.40
2022-12-11T23:06:22.773Z,85.50
2022-12-11T23:08:49.559Z,85.50
2022-12-11T23:11:24.869Z,85.40
2022-12-11T23:13:51.991Z,85.40
2022-12-11T23:16:18.861Z,85.50
2022-12-11T23:18:45.597Z,85.40
2022-12-11T23:21:12.666Z,85.40
2022-12-11T23:23:39.423Z,85.50
2022-12-11T23:26:06.588Z,85.50
2022-12-11T23:28:33.285Z,85.30
2022-12-11T23:30:59.994Z,85.30
2022-12-11T23:33:26.707Z,85.30
2022-12-11T23:35:53.428Z,85.40
2022-12-11T23:38:20.110Z,85.40
2022-12-11T23:40:46.799Z,85.40
2022-12-11T23:43:13.470Z,85.40
2022-12-11T23:45:43.860Z,85.40
2022-12-11T23:48:11.046Z,85.30
2022-12-11T23:50:37.850Z,85.40
2022-12-11T23:53:04.525Z,85.40
2022-12-11T23:55:31.203Z,85.40
2022-12-11T23:57:57.891Z,85.40
